Time;durP1;ratioP1;P1;durP2;ratioP2;P2;SDS_P1;SDS_P2;PMS_P1;PMS_P2;Temp;Humidity;BMP_temperature;BMP_pressure;BME280_temperature;BME280_humidity;BME280_pressure;Samples;Min_cycle;Max_cycle;Signal;HPM_P1;HPM_P2
2023/01/02 00:00:02;;;;;;;3.28;2.97;;;13.70;48.20;;;;;;20624;6743;280696;-77
2023/01/02 00:02:41;;;;;;;3.30;3.10;;;14.00;47.50;;;;;;20763;6758;121667;-74
2023/01/02 00:05:14;;;;;;;3.10;2.90;;;13.90;47.90;;;;;;20805;6758;121673;-78
2023/01/02 00:07:49;;;;;;;3.37;3.10;;;13.70;48.50;;;;;;20494;6749;338285;-77
2023/01/02 00:10:25;;;;;;;2.70;2.50;;;13.80;47.80;;;;;;20797;6758;117006;-77
2023/01/02 00:13:01;;;;;;;3.20;3.00;;;13.90;47.60;;;;;;20574;6758;307988;-77
2023/01/02 00:15:37;;;;;;;3.67;2.67;;;13.90;47.60;;;;;;20774;6758;119228;-73
2023/01/02 00:18:15;;;;;;;2.13;2.03;;;13.70;48.40;;;;;;20686;6758;117686;-77
2023/01/02 00:20:51;;;;;;;2.30;2.20;;;13.70;48.40;;;;;;20842;6743;117014;-77
2023/01/02 00:23:28;;;;;;;2.20;2.00;;;13.70;47.50;;;;;;20639;6743;309097;-78
2023/01/02 00:26:03;;;;;;;1.87;1.60;;;13.70;47.30;;;;;;20842;6743;121956;-77
2023/01/02 00:28:44;;;;;;;2.47;2.37;;;13.80;47.50;;;;;;20676;6758;117208;-77
2023/01/02 00:31:14;;;;;;;1.80;1.70;;;13.70;47.80;;;;;;20585;6758;306488;-77
2023/01/02 00:33:50;;;;;;;2.40;2.13;;;13.90;46.20;;;;;;20565;6758;280957;-77
2023/01/02 00:36:26;;;;;;;2.03;1.90;;;14.60;44.70;;;;;;20603;6758;335653;-78
2023/01/02 00:39:02;;;;;;;2.20;2.10;;;14.50;44.60;;;;;;20640;6758;117812;-80
2023/01/02 00:41:38;;;;;;;2.80;1.83;;;14.50;45.30;;;;;;20814;6744;117708;-77
2023/01/02 00:44:13;;;;;;;2.17;2.07;;;14.20;46.10;;;;;;20850;6744;120170;-77
2023/01/02 00:46:49;;;;;;;1.70;1.60;;;13.90;46.60;;;;;;20845;6744;117492;-77
2023/01/02 00:49:24;;;;;;;1.93;1.83;;;13.70;46.90;;;;;;20850;6744;116971;-77
2023/01/02 00:52:00;;;;;;;1.92;1.80;;;13.60;47.30;;;;;;20609;6744;335617;-77
2023/01/02 00:54:35;;;;;;;2.97;1.90;;;13.80;46.00;;;;;;20633;6744;277701;-79
2023/01/02 00:57:14;;;;;;;2.37;2.17;;;14.20;45.10;;;;;;20606;6744;282756;-79
2023/01/02 00:59:47;;;;;;;1.80;1.70;;;14.50;45.10;;;;;;20827;6744;118023;-76
2023/01/02 01:02:23;;;;;;;2.70;1.80;;;14.30;45.40;;;;;;20633;6744;340015;-75
2023/01/02 01:05:00;;;;;;;4.53;2.13;;;14.30;45.40;;;;;;20851;6744;118004;-76
2023/01/02 01:07:35;;;;;;;1.97;1.83;;;14.10;45.90;;;;;;20786;6744;117089;-78
2023/01/02 01:10:11;;;;;;;2.53;2.00;;;13.80;46.40;;;;;;20862;6744;117181;-76
2023/01/02 01:12:47;;;;;;;1.92;1.77;;;13.50;46.30;;;;;;20631;6744;306256;-76
2023/01/02 01:15:25;;;;;;;2.45;1.70;;;13.70;45.50;;;;;;20650;6744;277130;-76
2023/01/02 01:17:58;;;;;;;5.63;5.07;;;14.00;44.70;;;;;;20509;6744;312666;-76
2023/01/02 01:20:33;;;;;;;4.73;4.33;;;14.30;43.90;;;;;;20819;6758;118336;-76
2023/01/02 01:23:09;;;;;;;3.40;2.00;;;14.30;44.70;;;;;;20606;6758;313175;-76
2023/01/02 01:25:48;;;;;;;2.70;1.93;;;14.30;44.00;;;;;;20785;6758;118138;-76
2023/01/02 01:28:20;;;;;;;2.87;2.00;;;14.20;44.60;;;;;;20475;6748;308675;-76
2023/01/02 01:30:56;;;;;;;2.07;1.97;;;14.30;44.10;;;;;;20792;6758;121267;-76
2023/01/02 01:33:31;;;;;;;2.63;2.00;;;14.20;44.70;;;;;;20816;6758;116932;-77
2023/01/02 01:36:07;;;;;;;2.60;2.20;;;13.90;45.30;;;;;;20818;6758;117001;-76
2023/01/02 01:38:43;;;;;;;2.25;2.10;;;13.70;46.00;;;;;;20457;6758;278614;-76
2023/01/02 01:41:18;;;;;;;2.07;1.97;;;13.80;45.60;;;;;;20593;6758;277859;-76
2023/01/02 01:43:57;;;;;;;2.77;2.17;;;14.10;45.00;;;;;;20579;6758;306563;-76
2023/01/02 01:46:36;;;;;;;2.47;2.28;;;14.40;45.40;;;;;;20596;6758;307358;-76
2023/01/02 01:49:11;;;;;;;3.00;2.25;;;14.60;44.30;;;;;;20376;6829;280431;-76
2023/01/02 01:51:54;;;;;;;2.57;2.30;;;14.70;44.10;;;;;;20552;6759;311005;-76
2023/01/02 01:54:30;;;;;;;3.03;2.60;;;14.90;44.40;;;;;;20598;6758;277024;-77
2023/01/02 01:57:22;;;;;;;2.63;2.43;;;14.80;44.30;;;;;;20777;6758;118181;-76
2023/01/02 01:59:59;;;;;;;2.53;2.33;;;14.50;45.00;;;;;;20750;6744;118295;-76
2023/01/02 02:02:34;;;;;;;2.33;2.13;;;14.00;45.90;;;;;;20848;6744;118515;-76
2023/01/02 02:05:10;;;;;;;2.30;1.90;;;13.70;46.70;;;;;;20836;6744;118705;-76
2023/01/02 02:07:59;;;;;;;2.90;1.85;;;13.40;47.20;;;;;;20543;6744;307679;-76
2023/01/02 02:10:35;;;;;;;2.47;2.27;;;13.60;46.50;;;;;;20629;6744;306108;-76
2023/01/02 02:13:11;;;;;;;3.70;2.00;;;14.00;46.00;;;;;;20643;6744;277445;-76
2023/01/02 02:15:56;;;;;;;2.30;2.10;;;14.30;45.20;;;;;;20834;6744;119154;-75
2023/01/02 02:19:00;;;;;;;2.70;2.00;;;14.20;45.30;;;;;;20316;6800;296519;-76
2023/01/02 02:21:58;;;;;;;1.97;1.87;;;14.20;45.30;;;;;;20839;6744;118162;-78
2023/01/02 02:24:57;;;;;;;1.83;1.70;;;14.00;46.00;;;;;;20849;6744;118674;-77
2023/01/02 02:27:42;;;;;;;2.23;1.90;;;13.70;46.80;;;;;;20776;6744;117980;-77
2023/01/02 02:30:17;;;;;;;3.30;2.20;;;13.40;47.40;;;;;;20296;6800;118342;-76
2023/01/02 02:32:56;;;;;;;2.87;1.90;;;13.30;47.90;;;;;;20775;6763;117842;-76
2023/01/02 02:35:42;;;;;;;2.97;2.60;;;13.10;48.30;;;;;;20616;6748;293576;-76
2023/01/02 02:38:37;;;;;;;3.35;3.00;;;13.30;47.90;;;;;;20465;6763;336058;-77
2023/01/02 02:41:32;;;;;;;3.07;2.27;;;13.70;46.90;;;;;;20768;6772;116838;-77
2023/01/02 02:44:38;;;;;;;3.10;2.80;;;13.60;47.20;;;;;;20748;6772;118949;-77
2023/01/02 02:47:15;;;;;;;2.73;2.20;;;13.30;47.90;;;;;;20727;6778;117020;-76
2023/01/02 02:50:20;;;;;;;2.17;1.90;;;13.00;48.40;;;;;;20423;6823;119266;-77
2023/01/02 02:53:05;;;;;;;2.93;2.00;;;12.90;48.80;;;;;;20509;6775;283721;-76
2023/01/02 02:55:44;;;;;;;2.50;2.27;;;13.30;47.80;;;;;;20532;6768;308437;-76
2023/01/02 02:58:20;;;;;;;2.27;2.03;;;13.70;46.60;;;;;;20649;6794;117605;-77
2023/01/02 03:01:03;;;;;;;3.10;2.00;;;13.70;46.90;;;;;;20596;6771;278255;-78
2023/01/02 03:03:39;;;;;;;2.30;2.10;;;14.10;45.70;;;;;;20516;6771;307691;-82
2023/01/02 03:06:15;;;;;;;2.35;2.10;;;14.10;46.20;;;;;;20537;6771;338006;-76
2023/01/02 03:08:57;;;;;;;2.43;2.03;;;14.40;45.30;;;;;;20504;6771;121872;-76
2023/01/02 03:11:48;;;;;;;3.77;1.90;;;14.20;45.80;;;;;;20847;6739;117082;-77
2023/01/02 03:14:47;;;;;;;2.53;2.10;;;13.90;46.40;;;;;;20604;6755;338498;-76
2023/01/02 03:17:36;;;;;;;2.97;2.13;;;14.00;45.50;;;;;;20544;6754;309679;-81
2023/01/02 03:20:11;;;;;;;1.87;1.70;;;14.30;45.00;;;;;;20474;6793;309625;-77
2023/01/02 03:22:47;;;;;;;2.23;1.80;;;14.50;44.20;;;;;;20500;6786;277522;-78
2023/01/02 03:25:22;;;;;;;2.40;1.97;;;14.70;43.80;;;;;;20687;6779;118416;-77
2023/01/02 03:28:00;;;;;;;1.90;1.77;;;14.50;44.50;;;;;;20641;6797;117478;-80
2023/01/02 03:30:35;;;;;;;2.93;2.00;;;14.10;45.20;;;;;;20620;6751;277267;-75
2023/01/02 03:33:14;;;;;;;3.60;2.25;;;14.20;44.70;;;;;;20574;6764;310370;-79
2023/01/02 03:35:51;;;;;;;2.33;2.13;;;14.50;44.40;;;;;;20711;6779;118164;-77
2023/01/02 03:38:27;;;;;;;2.72;2.17;;;14.30;44.80;;;;;;19856;6850;343469;-79
2023/01/02 03:41:15;;;;;;;1.70;1.60;;;14.40;44.60;;;;;;20829;6749;117427;-75
2023/01/02 03:43:51;;;;;;;2.03;1.83;;;14.20;45.00;;;;;;20500;6779;311928;-77
2023/01/02 03:46:36;;;;;;;2.20;2.00;;;14.30;44.40;;;;;;20603;6764;276893;-81
2023/01/02 03:49:15;;;;;;;1.83;1.73;;;14.50;43.80;;;;;;20338;6850;339440;-78
2023/01/02 03:51:50;;;;;;;1.90;1.80;;;14.70;43.10;;;;;;20791;6759;117867;-77
2023/01/02 03:54:26;;;;;;;1.90;1.80;;;14.50;43.90;;;;;;20627;6748;282092;-77
2023/01/02 03:57:09;;;;;;;3.20;1.80;;;14.30;44.10;;;;;;20829;6744;118048;-74
2023/01/02 03:59:48;;;;;;;2.12;1.65;;;14.30;44.10;;;;;;20666;6729;307640;-76
2023/01/02 04:02:24;;;;;;;3.63;1.60;;;14.20;44.60;;;;;;20862;6741;117033;-78
2023/01/02 04:05:00;;;;;;;2.87;1.97;;;14.20;44.60;;;;;;20830;6756;119256;-77
2023/01/02 04:07:58;;;;;;;1.98;1.62;;;14.00;45.30;;;;;;20628;6729;307934;-79
2023/01/02 04:10:34;;;;;;;2.97;1.60;;;14.10;44.50;;;;;;19991;6782;309108;-76
2023/01/02 04:13:10;;;;;;;2.70;2.47;;;14.60;44.10;;;;;;20691;6726;277081;-76
2023/01/02 04:15:46;;;;;;;2.93;2.40;;;14.60;44.00;;;;;;20841;6738;116974;-76
2023/01/02 04:18:38;;;;;;;5.80;5.30;;;14.40;44.50;;;;;;20752;6738;115892;-76
2023/01/02 04:21:16;;;;;;;4.10;3.23;;;14.00;45.30;;;;;;20858;6738;117034;-76
2023/01/02 04:24:02;;;;;;;3.40;3.10;;;13.60;46.00;;;;;;20827;6741;121304;-76
2023/01/02 04:26:41;;;;;;;3.10;2.80;;;13.30;46.40;;;;;;20703;6724;310143;-75
2023/01/02 04:29:23;;;;;;;3.03;2.83;;;13.50;46.30;;;;;;20911;6724;117427;-76
2023/01/02 04:32:06;;;;;;;3.33;3.10;;;13.40;46.70;;;;;;20625;6741;311282;-76
2023/01/02 04:34:42;;;;;;;3.17;2.97;;;13.50;46.90;;;;;;20807;6753;117294;-76
2023/01/02 04:37:24;;;;;;;3.87;3.53;;;13.40;48.10;;;;;;20560;6753;313712;-76
2023/01/02 04:40:00;;;;;;;2.73;2.50;;;13.50;48.10;;;;;;20782;6758;117238;-76
2023/01/02 04:42:36;;;;;;;3.08;2.87;;;13.40;47.80;;;;;;20588;6755;306682;-76
2023/01/02 04:45:12;;;;;;;3.23;2.93;;;13.30;47.70;;;;;;20861;6740;116859;-76
2023/01/02 04:47:50;;;;;;;3.27;2.50;;;13.20;47.80;;;;;;20691;6759;117584;-76
2023/01/02 04:50:23;;;;;;;2.87;2.67;;;12.80;48.00;;;;;;20853;6756;118020;-76
2023/01/02 04:52:59;;;;;;;2.87;2.60;;;12.60;48.50;;;;;;20594;6758;281949;-76
2023/01/02 04:55:35;;;;;;;2.20;2.10;;;12.70;47.90;;;;;;20799;6761;117112;-76
2023/01/02 04:58:10;;;;;;;2.00;1.70;;;12.70;47.90;;;;;;20705;6761;119132;-76
2023/01/02 05:00:46;;;;;;;2.17;1.97;;;12.60;48.30;;;;;;20832;6748;117457;-76
2023/01/02 05:03:22;;;;;;;2.30;2.10;;;12.40;48.70;;;;;;20856;6744;117822;-76
2023/01/02 05:06:00;;;;;;;2.33;1.98;;;12.30;49.60;;;;;;20612;6744;304794;-76
2023/01/02 05:08:39;;;;;;;3.47;2.20;;;12.60;47.70;;;;;;20742;6748;117412;-76
2023/01/02 05:11:14;;;;;;;11.13;6.67;;;12.70;47.80;;;;;;20854;6744;117549;-76
2023/01/02 05:13:50;;;;;;;22.33;11.73;;;12.60;48.10;;;;;;20781;6759;117452;-76
2023/01/02 05:16:26;;;;;;;14.60;9.23;;;12.70;48.00;;;;;;20593;6754;326845;-75
2023/01/02 05:19:02;;;;;;;5.93;3.00;;;12.70;47.90;;;;;;20610;6749;118084;-76
2023/01/02 05:24:33;;;;;;;4.40;2.50;;;12.60;48.40;;;;;;20782;6767;119057;-76
2023/01/02 05:27:09;;;;;;;2.10;1.83;;;12.50;48.90;;;;;;20690;6762;120210;-75
2023/01/02 05:29:44;;;;;;;3.08;2.30;;;12.30;49.10;;;;;;20609;6749;337091;-76
2023/01/02 05:32:20;;;;;;;2.67;2.00;;;12.60;49.00;;;;;;20588;6758;280758;-76
2023/01/02 05:34:55;;;;;;;2.23;2.00;;;13.00;48.50;;;;;;20799;6757;117005;-76
2023/01/02 05:37:31;;;;;;;2.78;2.53;;;12.90;48.50;;;;;;20461;6780;307507;-76
2023/01/02 05:40:08;;;;;;;2.40;2.20;;;13.30;48.90;;;;;;20596;6753;280980;-76
2023/01/02 05:42:43;;;;;;;4.15;2.40;;;13.30;48.10;;;;;;20601;6754;337456;-76
2023/01/02 05:45:19;;;;;;;2.17;1.97;;;13.50;46.70;;;;;;20817;6755;117507;-76
2023/01/02 05:47:54;;;;;;;3.10;2.20;;;13.40;47.20;;;;;;20710;6755;145041;-76
2023/01/02 05:50:33;;;;;;;1.87;1.77;;;13.00;47.70;;;;;;20793;6755;117361;-76
2023/01/02 05:53:06;;;;;;;2.40;2.20;;;12.80;48.30;;;;;;20586;6755;299054;-76
2023/01/02 05:55:41;;;;;;;3.00;2.40;;;12.90;47.40;;;;;;20781;6755;141206;-76
2023/01/02 05:58:17;;;;;;;3.58;2.70;;;13.10;47.30;;;;;;20389;6755;294039;-76
2023/01/02 06:00:53;;;;;;;2.70;2.50;;;13.10;47.20;;;;;;20720;6755;118328;-75
2023/01/02 06:03:34;;;;;;;3.67;3.08;;;13.20;47.70;;;;;;20397;6755;322409;-77
2023/01/02 06:06:07;;;;;;;4.03;3.47;;;13.00;48.30;;;;;;20753;6755;116993;-78
2023/01/02 06:08:43;;;;;;;4.47;4.07;;;13.00;47.90;;;;;;20412;6755;307589;-79
2023/01/02 06:11:18;;;;;;;5.33;3.90;;;13.10;48.10;;;;;;20590;6753;309569;-80
2023/01/02 06:13:57;;;;;;;3.87;2.80;;;13.30;47.40;;;;;;20756;6753;116984;-82
2023/01/02 06:16:33;;;;;;;4.60;3.23;;;13.10;47.50;;;;;;20816;6753;117017;-80
2023/01/02 06:19:09;;;;;;;3.83;2.73;;;12.80;48.20;;;;;;20592;6825;117966;-76
2023/01/02 06:21:46;;;;;;;4.15;2.72;;;12.50;48.80;;;;;;20564;6753;277099;-73
2023/01/02 06:24:21;;;;;;;2.90;2.70;;;12.60;48.90;;;;;;20799;6754;117675;-76
2023/01/02 06:26:57;;;;;;;2.67;2.47;;;12.50;48.90;;;;;;20787;6753;118289;-76
2023/01/02 06:29:32;;;;;;;5.13;2.40;;;12.30;49.40;;;;;;20817;6753;119520;-75
2023/01/02 06:32:08;;;;;;;3.20;2.70;;;12.10;49.80;;;;;;20576;6753;306605;-75
2023/01/02 06:34:44;;;;;;;3.03;2.80;;;12.30;49.60;;;;;;20582;6753;306868;-75
2023/01/02 06:37:19;;;;;;;2.83;2.63;;;12.70;48.50;;;;;;20758;6753;116061;-77
2023/01/02 06:39:55;;;;;;;2.90;2.60;;;12.60;48.50;;;;;;20811;6749;120007;-77
2023/01/02 06:42:30;;;;;;;4.47;3.13;;;12.30;49.10;;;;;;20776;6764;117129;-77
2023/01/02 06:45:06;;;;;;;7.20;3.40;;;12.10;49.60;;;;;;20786;6764;117430;-77
2023/01/02 06:47:42;;;;;;;3.55;3.28;;;11.80;49.90;;;;;;20479;6764;309995;-77
2023/01/02 06:50:17;;;;;;;3.20;3.00;;;12.00;50.80;;;;;;20722;6764;117399;-76
2023/01/02 06:52:53;;;;;;;3.70;3.40;;;12.00;50.70;;;;;;20558;6761;308922;-71
2023/01/02 06:55:29;;;;;;;4.43;3.67;;;12.50;50.20;;;;;;20602;6749;282020;-73
2023/01/02 06:58:05;;;;;;;4.72;3.28;;;12.50;50.20;;;;;;20513;6749;339676;-73
2023/01/02 07:00:40;;;;;;;3.40;3.10;;;12.70;49.30;;;;;;20603;6749;339954;-72
2023/01/02 07:03:16;;;;;;;4.60;3.03;;;12.80;49.00;;;;;;20807;6749;117227;-71
2023/01/02 07:05:52;;;;;;;3.65;3.12;;;12.60;49.30;;;;;;20598;6753;337217;-74
2023/01/02 07:08:27;;;;;;;4.10;2.73;;;12.60;49.50;;;;;;20647;6771;119665;-74
2023/01/02 07:11:12;;;;;;;4.63;2.77;;;12.40;49.70;;;;;;20780;6765;117046;-76
2023/01/02 07:13:48;;;;;;;4.10;3.27;;;12.10;50.10;;;;;;20566;6761;277591;-73
2023/01/02 07:16:24;;;;;;;4.72;3.12;;;12.20;50.20;;;;;;20516;6761;339246;-72
2023/01/02 07:18:59;;;;;;;4.15;3.47;;;12.50;49.50;;;;;;20401;6765;313433;-73
2023/01/02 07:21:35;;;;;;;3.30;3.00;;;12.70;48.90;;;;;;20783;6761;117571;-72
2023/01/02 07:24:10;;;;;;;3.30;3.00;;;12.60;49.30;;;;;;20795;6760;117005;-73
2023/01/02 07:26:46;;;;;;;4.57;3.30;;;12.30;49.80;;;;;;20581;6761;312840;-74
2023/01/02 07:29:21;;;;;;;4.50;3.20;;;12.40;50.20;;;;;;20581;6761;306161;-73
2023/01/02 07:31:57;;;;;;;3.63;2.90;;;12.70;49.80;;;;;;20810;6753;117244;-72
2023/01/02 07:34:33;;;;;;;7.33;3.53;;;12.50;49.80;;;;;;20815;6753;117123;-73
2023/01/02 07:37:08;;;;;;;4.97;3.42;;;12.20;50.20;;;;;;20588;6748;309003;-73
2023/01/02 07:39:44;;;;;;;3.57;3.00;;;12.30;49.80;;;;;;20809;6749;117590;-73
2023/01/02 07:42:20;;;;;;;5.45;3.67;;;12.40;49.90;;;;;;20558;6766;310819;-73
2023/01/02 07:44:56;;;;;;;3.23;2.93;;;12.40;49.80;;;;;;20768;6766;117505;-73
2023/01/02 07:47:31;;;;;;;3.77;3.00;;;12.30;50.00;;;;;;20767;6749;117103;-72
2023/01/02 07:50:13;;;;;;;4.87;3.30;;;12.00;50.50;;;;;;20817;6749;117490;-73
2023/01/02 07:52:43;;;;;;;6.22;3.55;;;11.80;51.00;;;;;;20653;6734;307137;-72
2023/01/02 07:55:18;;;;;;;4.53;2.60;;;12.10;50.30;;;;;;20828;6749;117506;-72
2023/01/02 07:57:54;;;;;;;4.15;3.60;;;12.40;49.80;;;;;;20502;6744;338881;-75
2023/01/02 08:00:30;;;;;;;4.37;2.80;;;12.40;49.70;;;;;;20820;6749;116922;-72
2023/01/02 08:03:06;;;;;;;5.00;3.78;;;12.40;49.90;;;;;;20615;6749;307047;-73
2023/01/02 08:05:44;;;;;;;4.60;3.53;;;12.80;49.20;;;;;;20591;6749;278032;-75
2023/01/02 08:08:19;;;;;;;5.80;3.90;;;12.80;49.10;;;;;;20717;6749;117526;-73
2023/01/02 08:10:55;;;;;;;5.97;3.73;;;12.70;49.30;;;;;;20828;6749;117247;-72
2023/01/02 08:13:30;;;;;;;4.00;3.50;;;12.40;49.90;;;;;;20680;6734;308950;-74
2023/01/02 08:16:06;;;;;;;4.30;3.23;;;12.50;49.70;;;;;;20873;6734;118491;-74
2023/01/02 08:18:43;;;;;;;3.63;2.80;;;12.20;50.50;;;;;;20713;6734;117271;-74
2023/01/02 08:21:18;;;;;;;5.73;3.70;;;12.10;50.40;;;;;;20789;6764;118203;-73
2023/01/02 08:23:54;;;;;;;3.77;3.43;;;11.90;50.90;;;;;;20819;6749;118511;-73
2023/01/02 08:26:30;;;;;;;4.90;3.40;;;12.00;51.70;;;;;;20626;6749;278025;-73
2023/01/02 08:29:07;;;;;;;3.87;3.17;;;12.00;50.90;;;;;;20665;6749;118701;-73
2023/01/02 08:31:41;;;;;;;4.10;3.70;;;12.10;50.90;;;;;;20546;6764;339772;-76
2023/01/02 08:34:18;;;;;;;4.80;3.73;;;12.70;49.70;;;;;;20597;6763;280624;-74
2023/01/02 08:36:53;;;;;;;4.20;3.67;;;12.70;49.70;;;;;;20517;6779;307574;-75
2023/01/02 08:39:29;;;;;;;4.13;3.50;;;13.00;49.10;;;;;;20839;6749;117099;-74
2023/01/02 08:42:05;;;;;;;4.50;3.42;;;12.90;49.20;;;;;;20580;6752;340531;-73
2023/01/02 08:44:42;;;;;;;3.30;3.00;;;12.90;49.20;;;;;;20834;6749;117043;-74
2023/01/02 08:47:16;;;;;;;4.20;3.37;;;12.80;49.50;;;;;;20798;6749;118255;-73
2023/01/02 08:49:53;;;;;;;4.22;3.70;;;12.70;50.00;;;;;;20599;6764;340663;-75
2023/01/02 08:52:28;;;;;;;3.10;2.80;;;12.70;49.90;;;;;;20778;6764;118239;-74
2023/01/02 08:55:04;;;;;;;4.17;3.53;;;12.70;50.10;;;;;;20781;6763;117321;-74
2023/01/02 08:57:43;;;;;;;6.17;3.70;;;12.40;50.40;;;;;;20743;6750;121665;-75
2023/01/02 09:00:16;;;;;;;6.87;3.37;;;12.30;50.80;;;;;;20793;6761;117396;-74
2023/01/02 09:02:54;;;;;;;4.95;4.55;;;12.20;51.10;;;;;;20567;6764;335627;-73
2023/01/02 09:05:29;;;;;;;5.27;4.43;;;12.50;50.10;;;;;;20508;6784;282667;-73
2023/01/02 09:08:06;;;;;;;4.30;3.90;;;12.90;49.90;;;;;;20458;6773;308528;-74
2023/01/02 09:10:38;;;;;;;4.70;3.80;;;13.30;49.20;;;;;;20594;6759;306187;-74
2023/01/02 09:13:14;;;;;;;3.50;3.20;;;13.60;48.40;;;;;;20857;6744;117003;-73
2023/01/02 09:15:49;;;;;;;3.30;3.00;;;13.40;48.80;;;;;;20832;6744;120633;-70
2023/01/02 09:18:25;;;;;;;3.53;3.23;;;12.90;49.90;;;;;;20676;6744;117354;-73
2023/01/02 09:21:01;;;;;;;3.80;3.07;;;12.80;49.80;;;;;;20760;6764;117119;-75
2023/01/02 09:23:37;;;;;;;4.40;3.40;;;12.70;50.20;;;;;;20769;6764;120849;-76
2023/01/02 09:26:12;;;;;;;3.20;2.97;;;12.50;50.60;;;;;;20783;6759;118229;-74
2023/01/02 09:28:48;;;;;;;4.60;3.60;;;12.40;50.90;;;;;;20417;6764;298823;-77
2023/01/02 09:31:24;;;;;;;3.67;3.20;;;12.60;50.20;;;;;;20620;6741;277017;-77
2023/01/02 09:33:59;;;;;;;3.20;2.90;;;13.00;49.20;;;;;;20793;6756;118710;-77
2023/01/02 09:36:35;;;;;;;4.05;3.67;;;13.00;49.40;;;;;;20581;6761;305313;-76
2023/01/02 09:39:11;;;;;;;4.87;2.80;;;13.10;48.90;;;;;;20578;6832;121344;-75
2023/01/02 09:41:46;;;;;;;3.30;2.93;;;13.20;49.30;;;;;;20661;6724;311431;-74
2023/01/02 09:44:35;;;;;;;4.78;2.70;;;13.30;48.70;;;;;;20648;6739;305689;-74
2023/01/02 09:47:10;;;;;;;7.13;3.00;;;13.70;47.90;;;;;;20839;6739;118898;-74
2023/01/02 09:49:56;;;;;;;4.70;2.97;;;13.60;48.20;;;;;;20910;6723;116940;-74
2023/01/02 09:52:31;;;;;;;4.00;3.70;;;13.40;48.80;;;;;;20951;6708;118394;-75
2023/01/02 09:55:13;;;;;;;5.50;3.57;;;13.20;49.40;;;;;;20972;6708;116840;-75
2023/01/02 09:57:49;;;;;;;4.68;4.00;;;13.20;49.70;;;;;;20637;6708;306966;-75
2023/01/02 10:00:25;;;;;;;4.10;3.70;;;13.20;49.70;;;;;;20880;6741;122202;-75
2023/01/02 10:03:14;;;;;;;4.53;3.87;;;13.30;49.80;;;;;;20836;6738;117311;-75
2023/01/02 10:05:52;;;;;;;5.03;4.25;;;13.20;50.10;;;;;;20661;6754;302556;-75
2023/01/02 10:08:44;;;;;;;4.77;3.77;;;13.40;49.00;;;;;;20780;6727;120211;-79
2023/01/02 10:11:23;;;;;;;4.70;3.93;;;13.40;49.10;;;;;;20864;6727;118122;-75
2023/01/02 10:13:58;;;;;;;5.20;4.53;;;13.30;49.60;;;;;;20623;6727;338242;-75
2023/01/02 10:16:35;;;;;;;6.47;3.97;;;13.50;48.50;;;;;;20872;6727;118394;-75
2023/01/02 10:19:36;;;;;;;3.43;3.13;;;13.50;48.50;;;;;;20716;6786;117656;-74
2023/01/02 10:22:12;;;;;;;4.95;3.53;;;13.40;49.00;;;;;;20622;6739;335123;-76
2023/01/02 10:24:51;;;;;;;5.63;2.83;;;13.70;48.90;;;;;;20854;6745;118697;-74
2023/01/02 10:27:27;;;;;;;3.80;2.97;;;13.80;49.00;;;;;;20613;6738;283236;-75
2023/01/02 10:30:05;;;;;;;4.37;3.80;;;14.10;48.10;;;;;;20700;6719;305190;-75
2023/01/02 10:32:41;;;;;;;6.97;3.03;;;14.50;47.80;;;;;;20924;6717;119108;-75
2023/01/02 10:35:42;;;;;;;3.90;2.90;;;14.50;48.00;;;;;;20809;6744;117047;-74
2023/01/02 10:38:18;;;;;;;4.30;3.00;;;14.30;48.40;;;;;;20550;6747;291395;-76
2023/01/02 10:40:54;;;;;;;4.30;2.97;;;14.60;47.20;;;;;;20652;6742;314191;-75
2023/01/02 10:43:31;;;;;;;4.53;3.00;;;14.90;46.20;;;;;;20934;6721;118089;-74
2023/01/02 10:46:05;;;;;;;2.93;2.70;;;14.90;46.70;;;;;;20919;6717;118649;-79
2023/01/02 10:48:40;;;;;;;3.28;2.87;;;14.80;47.40;;;;;;20533;6730;308147;-80
2023/01/02 10:51:16;;;;;;;5.17;3.50;;;15.00;46.40;;;;;;20669;6732;279263;-79
2023/01/02 10:54:06;;;;;;;4.70;3.60;;;15.60;45.90;;;;;;20705;6717;334510;-74
2023/01/02 10:56:41;;;;;;;4.47;3.23;;;15.60;45.80;;;;;;20820;6747;117462;-73
2023/01/02 10:59:23;;;;;;;4.97;3.65;;;15.40;46.00;;;;;;20674;6746;300722;-73
2023/01/02 11:01:59;;;;;;;3.97;3.63;;;15.40;46.00;;;;;;20597;6749;291315;-73
2023/01/02 11:04:35;;;;;;;4.90;3.42;;;15.60;45.90;;;;;;20652;6738;309916;-72
2023/01/02 11:07:10;;;;;;;6.87;2.97;;;15.70;45.60;;;;;;20812;6746;119387;-72
2023/01/02 11:09:46;;;;;;;4.67;3.00;;;15.50;46.00;;;;;;20866;6731;119889;-73
2023/01/02 11:12:21;;;;;;;3.90;2.93;;;15.30;46.60;;;;;;20877;6729;118578;-72
2023/01/02 11:15:08;;;;;;;3.60;3.28;;;15.20;46.40;;;;;;20630;6746;304929;-75
2023/01/02 11:17:44;;;;;;;4.33;3.37;;;15.10;46.30;;;;;;20601;6727;277857;-73
2023/01/02 11:20:26;;;;;;;7.27;3.93;;;15.50;45.60;;;;;;20667;6735;313621;-73
2023/01/02 11:23:03;;;;;;;4.93;3.80;;;15.70;45.20;;;;;;20671;6731;314002;-76
2023/01/02 11:25:38;;;;;;;6.60;4.80;;;15.90;45.10;;;;;;20640;6729;310111;-73
2023/01/02 11:28:17;;;;;;;3.90;3.60;;;16.00;45.90;;;;;;20780;6729;120343;-73
2023/01/02 11:31:02;;;;;;;5.30;4.22;;;15.80;46.30;;;;;;20672;6729;334766;-72
2023/01/02 11:33:37;;;;;;;4.40;3.97;;;15.80;45.40;;;;;;20664;6729;277032;-72
2023/01/02 11:36:16;;;;;;;5.23;4.13;;;16.00;45.30;;;;;;20677;6729;303987;-72
2023/01/02 11:39:01;;;;;;;4.67;4.27;;;16.20;45.00;;;;;;20738;6729;117235;-73
2023/01/02 11:44:29;;;;;;;4.37;3.93;;;15.90;46.30;;;;;;20839;6744;117426;-72
2023/01/02 11:47:05;;;;;;;4.53;3.70;;;15.80;47.10;;;;;;20811;6761;117567;-73
2023/01/02 11:49:43;;;;;;;6.40;3.90;;;15.70;47.50;;;;;;20865;6729;118187;-75
2023/01/02 11:52:19;;;;;;;3.43;3.10;;;15.60;47.60;;;;;;20837;6744;118252;-75
2023/01/02 11:55:18;;;;;;;5.00;3.70;;;15.60;47.70;;;;;;20840;6744;121015;-75
2023/01/02 11:57:53;;;;;;;4.07;3.67;;;15.50;47.70;;;;;;20734;6744;117332;-73
2023/01/02 12:00:30;;;;;;;4.47;3.25;;;15.70;46.50;;;;;;20577;6744;278269;-73
2023/01/02 12:03:05;;;;;;;3.60;3.20;;;15.70;46.50;;;;;;20843;6744;116997;-73
2023/01/02 12:06:01;;;;;;;4.78;3.30;;;15.80;46.80;;;;;;20588;6744;340984;-73
2023/01/02 12:08:59;;;;;;;3.03;2.83;;;16.00;45.40;;;;;;20732;6746;118121;-74
2023/01/02 12:11:40;;;;;;;4.83;2.63;;;15.90;46.00;;;;;;20831;6746;116965;-73
2023/01/02 12:14:27;;;;;;;3.35;2.78;;;15.90;45.90;;;;;;20587;6746;278093;-73
2023/01/02 12:17:06;;;;;;;5.77;2.40;;;16.10;43.10;;;;;;20144;6820;125921;-72
2023/01/02 12:19:48;;;;;;;4.07;2.90;;;16.20;44.00;;;;;;20654;6731;334910;-74
2023/01/02 12:22:43;;;;;;;6.30;3.20;;;16.50;42.50;;;;;;20433;6787;306210;-73
2023/01/02 12:25:29;;;;;;;4.57;2.80;;;16.90;41.50;;;;;;19825;7072;122381;-74
2023/01/02 12:28:44;;;;;;;3.80;2.60;;;17.00;42.40;;;;;;20461;6786;123795;-73
2023/01/02 12:31:23;;;;;;;3.07;2.77;;;16.90;43.20;;;;;;20673;6750;117507;-74
2023/01/02 12:34:28;;;;;;;4.33;2.97;;;16.80;43.90;;;;;;20803;6750;117732;-76
2023/01/02 12:37:14;;;;;;;3.97;3.10;;;17.00;41.40;;;;;;20642;6731;334925;-78
2023/01/02 12:39:53;;;;;;;6.40;3.30;;;17.00;41.40;;;;;;20651;6731;296347;-76
2023/01/02 12:42:48;;;;;;;5.60;3.13;;;17.50;40.80;;;;;;20876;6731;118101;-75
2023/01/02 12:45:24;;;;;;;6.20;3.03;;;17.60;39.60;;;;;;20622;6729;294249;-75
2023/01/02 12:48:26;;;;;;;7.67;3.30;;;17.60;39.60;;;;;;20458;6729;310098;-73
2023/01/02 12:51:06;;;;;;;3.77;2.67;;;17.60;40.50;;;;;;20810;6731;116880;-76
2023/01/02 12:54:18;;;;;;;6.97;3.43;;;17.60;40.50;;;;;;20587;6731;278576;-74
2023/01/02 12:57:20;;;;;;;3.97;2.83;;;17.70;39.90;;;;;;20747;6746;118745;-75
2023/01/02 12:59:59;;;;;;;6.35;3.00;;;17.50;40.80;;;;;;20511;6750;278756;-77
2023/01/02 13:02:41;;;;;;;5.47;2.30;;;17.60;39.10;;;;;;20817;6746;117448;-77
2023/01/02 13:05:17;;;;;;;6.30;2.60;;;17.60;40.10;;;;;;20874;6787;118553;-73
2023/01/02 13:07:56;;;;;;;8.43;3.03;;;17.40;40.70;;;;;;20533;6746;282455;-74
2023/01/02 13:10:31;;;;;;;6.17;2.70;;;17.50;38.00;;;;;;20833;6746;117348;-74
2023/01/02 13:13:08;;;;;;;5.93;2.90;;;17.70;38.00;;;;;;20543;6761;286397;-74
2023/01/02 13:15:44;;;;;;;5.53;2.70;;;18.00;37.30;;;;;;20605;6730;277872;-74
2023/01/02 13:18:22;;;;;;;4.93;2.75;;;17.90;37.10;;;;;;20561;6729;308039;-75
2023/01/02 13:21:11;;;;;;;7.87;3.30;;;18.20;36.20;;;;;;20895;6729;116848;-75
2023/01/02 13:23:48;;;;;;;5.80;2.60;;;17.80;38.80;;;;;;20389;6785;119194;-74
2023/01/02 13:26:26;;;;;;;7.13;2.77;;;17.80;38.30;;;;;;20675;6729;305481;-74
2023/01/02 13:29:08;;;;;;;5.03;2.27;;;17.90;36.40;;;;;;20713;6729;119402;-74
2023/01/02 13:31:48;;;;;;;6.65;2.90;;;17.80;37.60;;;;;;20597;6785;334955;-74
2023/01/02 13:34:27;;;;;;;10.98;2.90;;;17.90;35.90;;;;;;20672;6729;332893;-74
2023/01/02 13:37:08;;;;;;;6.30;2.20;;;18.20;35.80;;;;;;20868;6729;118449;-74
2023/01/02 13:39:47;;;;;;;5.93;2.73;;;18.10;37.00;;;;;;20876;6729;123269;-74